Time;durP1;ratioP1;P1;durP2;ratioP2;P2;SDS_P1;SDS_P2;PMS_P1;PMS_P2;Temp;Humidity;BMP_temperature;BMP_pressure;BME280_temperature;BME280_humidity;BME280_pressure;Samples;Min_cycle;Max_cycle;Signal;HPM_P1;HPM_P2
2021/08/14 00:01:28;;;;;;;23.57;21.47;;;14.00;99.90;;;;;;5060647;28;20968;-71
2021/08/14 00:03:55;;;;;;;21.93;20.00;;;13.90;99.90;;;;;;5053867;28;20460;-70
2021/08/14 00:06:23;;;;;;;24.13;20.23;;;13.90;99.90;;;;;;5056757;28;20452;-70
2021/08/14 00:08:50;;;;;;;23.77;21.50;;;13.90;99.90;;;;;;5056949;28;20463;-70
2021/08/14 00:11:17;;;;;;;21.80;20.17;;;13.80;99.90;;;;;;5054579;28;20497;-70
2021/08/14 00:13:44;;;;;;;24.47;22.37;;;13.80;99.90;;;;;;5052464;28;20450;-72
2021/08/14 00:16:13;;;;;;;21.50;19.70;;;13.80;99.90;;;;;;5051737;28;20487;-70
2021/08/14 00:18:39;;;;;;;22.93;21.10;;;13.80;99.90;;;;;;5055328;28;20456;-70
2021/08/14 00:21:07;;;;;;;23.67;21.77;;;13.80;99.90;;;;;;5049125;28;20448;-70
2021/08/14 00:23:34;;;;;;;21.73;20.20;;;13.70;99.90;;;;;;5054628;28;20717;-70
2021/08/14 00:26:02;;;;;;;23.90;21.80;;;13.70;99.90;;;;;;5052655;28;20538;-71
2021/08/14 00:28:29;;;;;;;22.50;20.70;;;13.70;99.90;;;;;;5059245;28;20473;-70
2021/08/14 00:30:56;;;;;;;23.70;21.57;;;13.70;99.90;;;;;;5049968;28;20483;-71
2021/08/14 00:33:24;;;;;;;24.33;22.27;;;13.70;99.90;;;;;;5053275;28;20906;-71
2021/08/14 00:35:51;;;;;;;24.43;22.13;;;13.70;99.90;;;;;;5048686;28;20499;-70
2021/08/14 00:38:18;;;;;;;24.67;22.50;;;13.70;99.90;;;;;;5050592;28;21234;-71
2021/08/14 00:40:44;;;;;;;25.30;22.70;;;13.70;99.90;;;;;;5056619;28;20482;-71
2021/08/14 00:43:12;;;;;;;24.03;21.93;;;13.60;99.90;;;;;;5052445;28;20463;-70
2021/08/14 00:45:41;;;;;;;24.40;22.27;;;13.60;99.90;;;;;;5051760;28;20546;-70
2021/08/14 00:48:09;;;;;;;24.50;22.40;;;13.50;99.90;;;;;;5049799;28;20819;-72
2021/08/14 00:50:38;;;;;;;25.83;23.30;;;13.50;99.90;;;;;;5055329;28;20487;-70
2021/08/14 00:53:05;;;;;;;27.40;24.90;;;13.60;99.90;;;;;;5052637;28;20485;-71
2021/08/14 00:55:32;;;;;;;30.60;25.30;;;13.60;99.90;;;;;;5057571;28;20458;-71
2021/08/14 00:57:59;;;;;;;26.80;24.10;;;13.70;99.90;;;;;;5045957;28;20679;-71
2021/08/14 01:00:27;;;;;;;31.53;23.73;;;13.90;99.90;;;;;;5056701;28;20455;-70
2021/08/14 01:02:54;;;;;;;27.30;24.40;;;14.10;99.90;;;;;;5047111;28;21048;-71
2021/08/14 01:05:21;;;;;;;27.20;24.40;;;14.20;99.90;;;;;;5053613;28;20463;-71
2021/08/14 01:07:51;;;;;;;32.07;26.60;;;14.40;99.90;;;;;;5051391;28;20459;-71
2021/08/14 01:10:18;;;;;;;25.80;23.00;;;14.40;99.90;;;;;;5046804;28;20475;-71
2021/08/14 01:12:47;;;;;;;32.17;22.40;;;14.40;99.90;;;;;;5054438;28;20469;-70
2021/08/14 01:15:14;;;;;;;26.17;23.33;;;14.40;99.90;;;;;;5056428;28;20452;-69
2021/08/14 01:17:42;;;;;;;23.80;21.60;;;14.40;99.90;;;;;;5052472;28;20874;-73
2021/08/14 01:20:11;;;;;;;23.73;21.47;;;14.30;99.90;;;;;;5054172;28;20461;-71
2021/08/14 01:22:39;;;;;;;24.80;22.60;;;14.20;99.90;;;;;;5049766;28;20455;-71
2021/08/14 01:25:09;;;;;;;28.23;24.80;;;14.10;99.90;;;;;;5052487;28;20447;-70
2021/08/14 01:27:39;;;;;;;25.07;22.57;;;14.00;99.90;;;;;;5053165;28;20815;-71
2021/08/14 01:30:07;;;;;;;26.60;23.90;;;13.90;99.90;;;;;;5054825;28;20487;-70
2021/08/14 01:32:35;;;;;;;25.17;22.97;;;13.90;99.90;;;;;;5058980;28;20470;-70
2021/08/14 01:35:02;;;;;;;28.40;23.00;;;13.80;99.90;;;;;;5049576;28;20463;-72
2021/08/14 01:37:30;;;;;;;25.10;22.60;;;13.80;99.90;;;;;;5046411;28;20459;-70
2021/08/14 01:39:57;;;;;;;25.23;22.83;;;13.80;99.90;;;;;;5053329;28;20463;-71
2021/08/14 01:42:24;;;;;;;26.13;23.73;;;13.80;99.90;;;;;;5050053;28;20452;-72
2021/08/14 01:44:53;;;;;;;26.73;24.10;;;13.60;99.90;;;;;;5054455;28;20969;-71
2021/08/14 01:47:21;;;;;;;28.13;25.00;;;13.60;99.90;;;;;;5052600;28;20443;-70
2021/08/14 01:49:48;;;;;;;27.07;24.13;;;13.50;99.90;;;;;;5053932;28;20455;-70
2021/08/14 01:52:16;;;;;;;28.53;25.70;;;13.50;99.90;;;;;;5053234;28;20833;-70
2021/08/14 01:54:44;;;;;;;30.97;25.20;;;13.50;99.90;;;;;;5055861;28;20470;-70
2021/08/14 01:57:11;;;;;;;27.20;24.30;;;13.60;99.90;;;;;;5057113;28;20814;-70
2021/08/14 01:59:38;;;;;;;26.90;24.20;;;13.60;99.90;;;;;;5059734;28;20494;-71
2021/08/14 02:02:06;;;;;;;28.10;25.50;;;13.60;99.90;;;;;;5057335;28;20463;-70
2021/08/14 02:04:33;;;;;;;27.30;24.40;;;13.50;99.90;;;;;;5055119;28;20481;-70
2021/08/14 02:07:01;;;;;;;25.40;22.90;;;13.40;99.90;;;;;;5054230;28;20452;-70
2021/08/14 02:09:28;;;;;;;27.73;24.43;;;13.40;99.90;;;;;;5049834;28;20566;-71
2021/08/14 02:11:55;;;;;;;26.87;24.03;;;13.30;99.90;;;;;;5048493;28;21067;-71
2021/08/14 02:14:22;;;;;;;27.30;24.50;;;13.20;99.90;;;;;;5050299;28;20908;-70
2021/08/14 02:16:49;;;;;;;28.17;24.63;;;13.20;99.90;;;;;;5052177;28;20475;-71
2021/08/14 02:19:18;;;;;;;31.00;24.50;;;13.30;99.90;;;;;;5053633;28;20985;-70
2021/08/14 02:21:45;;;;;;;25.80;23.40;;;13.50;99.90;;;;;;5058051;28;20458;-71
2021/08/14 02:24:12;;;;;;;28.17;24.93;;;13.50;99.90;;;;;;5055136;28;20509;-71
2021/08/14 02:26:39;;;;;;;28.07;24.93;;;13.50;99.90;;;;;;5053890;28;20462;-70
2021/08/14 02:29:06;;;;;;;27.03;24.63;;;13.40;99.90;;;;;;5059328;28;20453;-70
2021/08/14 02:31:33;;;;;;;27.33;24.53;;;13.30;99.90;;;;;;5059077;28;20486;-70
2021/08/14 02:34:01;;;;;;;26.83;24.33;;;13.30;99.90;;;;;;5053873;28;20855;-71
2021/08/14 02:36:29;;;;;;;26.00;23.70;;;13.30;99.90;;;;;;5055863;28;20476;-71
2021/08/14 02:38:56;;;;;;;34.17;25.03;;;13.20;99.90;;;;;;5061528;28;20467;-70
2021/08/14 02:41:24;;;;;;;28.63;25.03;;;13.20;99.90;;;;;;5060237;28;20455;-70
2021/08/14 02:43:50;;;;;;;26.80;24.13;;;13.20;99.90;;;;;;5053751;28;20460;-70
2021/08/14 02:46:17;;;;;;;27.37;24.83;;;13.10;99.90;;;;;;5053535;28;20813;-70
2021/08/14 02:48:44;;;;;;;28.90;24.33;;;13.00;99.90;;;;;;5059511;28;20879;-71
2021/08/14 02:51:12;;;;;;;27.67;24.90;;;13.10;99.90;;;;;;5060221;28;20849;-70
2021/08/14 02:53:40;;;;;;;30.57;25.73;;;13.10;99.90;;;;;;5057733;28;20860;-71
2021/08/14 02:56:07;;;;;;;29.03;26.03;;;13.20;99.90;;;;;;5055886;28;20451;-70
2021/08/14 02:58:34;;;;;;;33.83;26.43;;;13.20;99.90;;;;;;5057644;28;20685;-70
2021/08/14 03:01:01;;;;;;;29.60;26.57;;;13.20;99.90;;;;;;5056813;28;20823;-70
2021/08/14 03:03:28;;;;;;;30.43;24.63;;;13.20;99.90;;;;;;5059829;28;20471;-70
2021/08/14 03:05:55;;;;;;;29.97;25.77;;;13.10;99.90;;;;;;5054694;28;20927;-70
2021/08/14 03:08:22;;;;;;;28.30;25.50;;;13.00;99.90;;;;;;5058252;28;20459;-71
2021/08/14 03:10:50;;;;;;;28.73;25.90;;;12.90;99.90;;;;;;5056740;28;20692;-71
2021/08/14 03:13:17;;;;;;;32.87;25.07;;;12.90;99.90;;;;;;5061224;28;20580;-70
2021/08/14 03:15:43;;;;;;;28.20;25.23;;;12.80;99.90;;;;;;5051287;28;20582;-70
2021/08/14 03:18:10;;;;;;;27.90;25.30;;;12.80;99.90;;;;;;5057231;28;20456;-71
2021/08/14 03:20:38;;;;;;;26.80;24.30;;;12.80;99.90;;;;;;5055741;28;20526;-71
2021/08/14 03:23:05;;;;;;;26.60;23.90;;;12.80;99.90;;;;;;5053323;28;20464;-72
2021/08/14 03:25:32;;;;;;;31.17;25.70;;;12.80;99.90;;;;;;5054923;28;20465;-69
2021/08/14 03:28:00;;;;;;;28.80;24.30;;;12.80;99.90;;;;;;5051042;28;20471;-71
2021/08/14 03:30:27;;;;;;;25.37;23.00;;;12.80;99.90;;;;;;5051540;28;20517;-71
2021/08/14 03:32:54;;;;;;;25.37;23.07;;;12.70;99.90;;;;;;5047001;28;20459;-71
2021/08/14 03:35:21;;;;;;;27.30;24.00;;;12.60;99.90;;;;;;5056429;28;20442;-70
2021/08/14 03:37:47;;;;;;;27.73;25.30;;;12.60;99.90;;;;;;5054737;28;20839;-70
2021/08/14 03:40:15;;;;;;;28.13;25.33;;;12.50;99.90;;;;;;5053827;28;20451;-70
2021/08/14 03:42:42;;;;;;;28.47;25.57;;;12.60;99.90;;;;;;5053687;28;20979;-70
2021/08/14 03:45:11;;;;;;;26.50;24.20;;;12.60;99.90;;;;;;5057508;28;20451;-69
2021/08/14 03:47:38;;;;;;;27.10;24.50;;;12.50;99.90;;;;;;5060915;28;20466;-71
2021/08/14 03:50:08;;;;;;;28.37;24.97;;;12.50;99.90;;;;;;5048500;28;20456;-70
2021/08/14 03:52:35;;;;;;;26.73;24.33;;;12.50;99.90;;;;;;5057377;28;20890;-70
2021/08/14 03:55:03;;;;;;;27.83;24.00;;;12.40;99.90;;;;;;5055275;28;20804;-70
2021/08/14 03:57:30;;;;;;;27.80;23.73;;;12.50;99.90;;;;;;5052744;28;20468;-69
2021/08/14 03:59:58;;;;;;;29.03;23.90;;;12.70;99.90;;;;;;5050023;28;20464;-70
2021/08/14 04:02:26;;;;;;;29.70;23.27;;;12.80;99.90;;;;;;5059236;28;20814;-70
2021/08/14 04:04:53;;;;;;;25.30;22.70;;;13.00;99.90;;;;;;5047993;28;20464;-70
2021/08/14 04:07:20;;;;;;;30.70;23.67;;;13.10;99.90;;;;;;5055105;28;20451;-69
2021/08/14 04:09:48;;;;;;;25.80;23.17;;;13.10;99.90;;;;;;5055516;28;20451;-70
2021/08/14 04:12:15;;;;;;;25.60;22.93;;;13.10;99.90;;;;;;5050985;28;20491;-70
2021/08/14 04:14:42;;;;;;;25.93;21.90;;;13.00;99.90;;;;;;5056637;28;20464;-70
2021/08/14 04:17:09;;;;;;;24.60;22.23;;;12.90;99.90;;;;;;5056042;28;20499;-70
2021/08/14 04:19:37;;;;;;;24.60;21.63;;;12.70;99.90;;;;;;5060007;28;20534;-70
2021/08/14 04:22:06;;;;;;;27.37;24.60;;;12.60;99.90;;;;;;5059255;28;20466;-70
2021/08/14 04:24:33;;;;;;;25.30;22.80;;;12.60;99.90;;;;;;5053450;28;20500;-70
2021/08/14 04:27:00;;;;;;;27.03;24.30;;;12.50;99.90;;;;;;5051437;28;20830;-69
2021/08/14 04:29:28;;;;;;;26.17;23.97;;;12.40;99.90;;;;;;5057154;28;20455;-69
2021/08/14 04:31:55;;;;;;;27.33;24.60;;;12.40;99.90;;;;;;5054701;28;20487;-69
2021/08/14 04:34:23;;;;;;;27.83;23.83;;;12.30;99.90;;;;;;5055196;28;20462;-69
2021/08/14 04:36:51;;;;;;;27.03;24.50;;;12.30;99.90;;;;;;5055793;28;20786;-69
2021/08/14 04:39:18;;;;;;;29.43;24.83;;;12.40;99.90;;;;;;5055401;28;20467;-71
2021/08/14 04:41:45;;;;;;;28.07;25.17;;;12.60;99.90;;;;;;5062832;28;20451;-70
2021/08/14 04:44:13;;;;;;;28.90;25.30;;;12.70;99.90;;;;;;5055687;28;20467;-69
2021/08/14 04:46:40;;;;;;;25.27;22.57;;;12.80;99.90;;;;;;5053732;28;20545;-69
2021/08/14 04:49:08;;;;;;;24.97;22.57;;;13.00;99.90;;;;;;5054439;28;20460;-69
2021/08/14 04:51:37;;;;;;;25.93;22.97;;;13.00;99.90;;;;;;5057598;28;20487;-71
2021/08/14 04:54:05;;;;;;;25.70;23.00;;;13.10;99.90;;;;;;5056022;28;20450;-70
2021/08/14 04:56:32;;;;;;;24.30;21.90;;;13.20;99.90;;;;;;5060063;28;20819;-70
2021/08/14 04:59:01;;;;;;;29.40;22.97;;;13.30;99.90;;;;;;5054447;28;20844;-69
2021/08/14 05:01:28;;;;;;;22.43;20.37;;;13.40;99.90;;;;;;5055088;28;20456;-70
2021/08/14 05:03:55;;;;;;;27.97;22.33;;;13.40;99.90;;;;;;5051634;28;20456;-69
2021/08/14 05:06:23;;;;;;;24.33;21.70;;;13.40;99.90;;;;;;5056593;28;20451;-71
2021/08/14 05:08:50;;;;;;;23.97;21.77;;;13.50;99.90;;;;;;5053888;28;20467;-70
2021/08/14 05:11:20;;;;;;;24.27;21.97;;;13.60;99.90;;;;;;5055982;28;20589;-70
2021/08/14 05:13:47;;;;;;;23.67;21.30;;;13.60;99.90;;;;;;5057577;28;20916;-71
2021/08/14 05:16:14;;;;;;;24.20;21.63;;;13.80;99.90;;;;;;5056993;28;20470;-70
2021/08/14 05:18:41;;;;;;;23.63;21.23;;;13.90;99.90;;;;;;5054427;28;20459;-69
2021/08/14 05:21:09;;;;;;;24.40;21.90;;;13.90;99.90;;;;;;5048049;28;20500;-71
2021/08/14 05:23:38;;;;;;;25.63;22.90;;;13.80;99.90;;;;;;5054407;28;20861;-70
2021/08/14 05:26:07;;;;;;;33.17;23.77;;;13.80;99.90;;;;;;5048826;28;20824;-70
2021/08/14 05:28:35;;;;;;;24.77;21.80;;;13.80;99.90;;;;;;5059217;28;20458;-71
2021/08/14 05:31:02;;;;;;;23.27;21.00;;;13.80;99.90;;;;;;5059707;28;20718;-70
2021/08/14 05:33:29;;;;;;;28.83;22.70;;;13.70;99.90;;;;;;5054164;28;20463;-71
2021/08/14 05:35:56;;;;;;;24.70;22.50;;;13.80;99.90;;;;;;5054867;28;20455;-70
2021/08/14 05:38:22;;;;;;;25.43;22.37;;;13.90;99.90;;;;;;5055643;28;20466;-70
2021/08/14 05:40:51;;;;;;;25.67;21.63;;;13.80;99.90;;;;;;5054483;28;20452;-70
2021/08/14 05:43:18;;;;;;;26.30;23.73;;;13.80;99.90;;;;;;5055841;28;20970;-70
2021/08/14 05:45:46;;;;;;;26.73;23.63;;;14.00;99.90;;;;;;5060437;28;20453;-70
2021/08/14 05:48:13;;;;;;;27.70;21.83;;;14.10;99.90;;;;;;5051775;28;20464;-70
2021/08/14 05:50:40;;;;;;;24.37;21.87;;;14.10;99.90;;;;;;5059293;28;20462;-71
2021/08/14 05:53:07;;;;;;;28.57;23.53;;;14.20;99.90;;;;;;5049412;28;20483;-69
2021/08/14 05:55:34;;;;;;;30.10;23.00;;;14.30;99.90;;;;;;5047043;28;20460;-69
2021/08/14 05:58:01;;;;;;;24.67;22.10;;;14.50;99.90;;;;;;5053512;28;20558;-70
2021/08/14 06:00:29;;;;;;;23.70;21.43;;;14.60;99.90;;;;;;5053565;28;20738;-69
2021/08/14 06:02:58;;;;;;;28.73;21.17;;;14.70;99.90;;;;;;5052349;28;20477;-71
2021/08/14 06:05:25;;;;;;;23.63;21.33;;;14.80;99.90;;;;;;5051115;28;20452;-70
2021/08/14 06:07:52;;;;;;;30.57;21.97;;;14.90;99.90;;;;;;5057367;28;20447;-70
2021/08/14 06:10:20;;;;;;;27.50;21.73;;;15.00;99.90;;;;;;5048864;28;20813;-70
2021/08/14 06:12:48;;;;;;;23.07;20.87;;;15.10;99.90;;;;;;5051239;28;20946;-70
2021/08/14 06:15:15;;;;;;;25.03;22.20;;;15.20;99.90;;;;;;5048472;28;21026;-69
2021/08/14 06:17:42;;;;;;;25.07;22.60;;;15.30;99.90;;;;;;5050777;28;20665;-69
2021/08/14 06:20:13;;;;;;;29.80;23.27;;;15.40;99.90;;;;;;5053855;28;20789;-69
2021/08/14 06:22:41;;;;;;;29.33;21.70;;;15.50;99.90;;;;;;5057591;28;20459;-69
2021/08/14 06:25:09;;;;;;;25.07;22.30;;;15.60;99.90;;;;;;5053291;28;20468;-69
2021/08/14 06:27:37;;;;;;;24.57;22.07;;;15.60;99.90;;;;;;5055240;28;20573;-68
2021/08/14 06:30:06;;;;;;;32.03;21.27;;;15.70;99.90;;;;;;5051298;28;20783;-68
2021/08/14 06:32:34;;;;;;;24.93;22.27;;;15.80;99.90;;;;;;5057765;28;20493;-69
2021/08/14 06:35:01;;;;;;;26.00;21.20;;;15.90;99.90;;;;;;5050275;28;20470;-69
2021/08/14 06:37:31;;;;;;;28.20;22.50;;;16.10;99.90;;;;;;5055147;28;20470;-69
2021/08/14 06:40:00;;;;;;;23.70;21.33;;;16.20;99.90;;;;;;5060297;28;20466;-70
2021/08/14 06:42:27;;;;;;;27.53;20.83;;;16.30;99.90;;;;;;5061207;28;21147;-69
2021/08/14 06:44:56;;;;;;;25.53;20.73;;;16.40;99.90;;;;;;5057190;28;20463;-69
2021/08/14 06:47:23;;;;;;;21.13;18.97;;;16.50;99.90;;;;;;5062442;28;20968;-70
2021/08/14 06:49:51;;;;;;;28.43;20.10;;;16.60;99.90;;;;;;5057367;28;20462;-70
2021/08/14 06:52:18;;;;;;;24.17;20.47;;;16.70;99.90;;;;;;5055317;28;20830;-70
2021/08/14 06:54:46;;;;;;;23.17;20.10;;;16.90;99.90;;;;;;5056677;28;20482;-70
2021/08/14 06:57:13;;;;;;;27.53;19.50;;;17.10;99.90;;;;;;5059878;28;20971;-70
2021/08/14 06:59:40;;;;;;;21.30;19.40;;;17.20;99.90;;;;;;5058134;28;20448;-70
2021/08/14 07:02:08;;;;;;;21.93;19.13;;;17.40;99.90;;;;;;5054952;28;20467;-70
2021/08/14 07:04:34;;;;;;;21.67;18.10;;;17.50;99.90;;;;;;5052537;28;20460;-70
2021/08/14 07:07:01;;;;;;;28.23;19.50;;;17.60;99.90;;;;;;5055189;28;20691;-70
2021/08/14 07:09:29;;;;;;;19.63;17.93;;;17.60;99.90;;;;;;5058712;28;20490;-70
2021/08/14 07:11:57;;;;;;;20.77;18.73;;;17.70;99.90;;;;;;5060857;28;21006;-70
2021/08/14 07:14:24;;;;;;;25.97;17.93;;;17.80;99.90;;;;;;5052385;28;20454;-72
2021/08/14 07:16:52;;;;;;;22.67;18.47;;;17.80;99.90;;;;;;5056998;28;20476;-73
2021/08/14 07:19:18;;;;;;;22.90;19.17;;;17.80;99.90;;;;;;5058750;28;20467;-70
2021/08/14 07:21:45;;;;;;;23.20;19.00;;;17.80;99.90;;;;;;5060953;28;20910;-71
2021/08/14 07:24:12;;;;;;;22.20;17.50;;;17.90;99.90;;;;;;5061447;28;20458;-73
2021/08/14 07:26:39;;;;;;;20.90;17.97;;;18.10;99.90;;;;;;5056520;28;20454;-71
2021/08/14 07:29:07;;;;;;;19.13;17.33;;;18.20;99.90;;;;;;5056241;28;20458;-71
2021/08/14 07:31:34;;;;;;;22.43;16.03;;;18.30;99.90;;;;;;5056888;28;20467;-71
2021/08/14 07:34:01;;;;;;;17.33;15.90;;;18.30;99.90;;;;;;5063056;28;20866;-71
2021/08/14 07:36:28;;;;;;;19.50;15.70;;;18.30;99.90;;;;;;5060325;28;20455;-72
2021/08/14 07:38:57;;;;;;;16.40;15.00;;;18.30;99.90;;;;;;5049922;28;20463;-72
2021/08/14 07:41:26;;;;;;;17.43;15.40;;;18.50;99.90;;;;;;5058307;28;20455;-71
2021/08/14 07:43:54;;;;;;;17.00;15.27;;;18.60;99.90;;;;;;5055779;28;20488;-72
2021/08/14 07:46:24;;;;;;;16.30;14.77;;;18.70;99.90;;;;;;5058646;28;21031;-71
2021/08/14 07:48:52;;;;;;;18.27;16.33;;;18.70;99.90;;;;;;5054431;28;20454;-71
2021/08/14 07:51:19;;;;;;;17.90;15.90;;;18.80;99.90;;;;;;5052423;28;20482;-70
2021/08/14 07:53:47;;;;;;;15.97;14.87;;;18.80;99.90;;;;;;5047966;28;20482;-72
2021/08/14 07:56:14;;;;;;;17.33;15.30;;;18.90;99.90;;;;;;5060004;28;20969;-71
2021/08/14 07:58:42;;;;;;;16.77;15.33;;;19.10;99.90;;;;;;5055523;28;20462;-70
2021/08/14 08:01:09;;;;;;;17.23;15.53;;;19.30;99.90;;;;;;5061549;28;20462;-71
2021/08/14 08:03:37;;;;;;;17.07;15.40;;;19.30;99.90;;;;;;5052418;28;20785;-71
2021/08/14 08:06:04;;;;;;;16.63;15.00;;;19.40;99.90;;;;;;5048972;28;20812;-71
2021/08/14 08:08:31;;;;;;;18.73;14.97;;;19.40;99.90;;;;;;5053774;28;20843;-71
2021/08/14 08:10:57;;;;;;;25.67;17.20;;;19.50;99.90;;;;;;5048919;28;20998;-71
2021/08/14 08:13:25;;;;;;;16.17;14.87;;;19.60;99.90;;;;;;5059832;28;20478;-71
2021/08/14 08:15:52;;;;;;;18.33;16.40;;;19.60;99.90;;;;;;5055391;28;20546;-71
2021/08/14 08:18:19;;;;;;;15.87;14.27;;;19.70;99.90;;;;;;5055235;28;20463;-71
2021/08/14 08:20:47;;;;;;;17.13;15.20;;;19.80;99.90;;;;;;5057408;28;20460;-71
2021/08/14 08:23:14;;;;;;;16.87;15.30;;;19.90;99.90;;;;;;5054239;28;20463;-71
2021/08/14 08:25:41;;;;;;;16.83;14.80;;;19.90;99.90;;;;;;5060901;28;20954;-72
2021/08/14 08:28:08;;;;;;;16.30;14.90;;;20.00;99.90;;;;;;5055376;28;20841;-71
2021/08/14 08:30:36;;;;;;;15.90;14.43;;;20.00;99.90;;;;;;5056497;28;20469;-70
2021/08/14 08:33:04;;;;;;;16.53;15.13;;;20.10;99.90;;;;;;5058369;28;20582;-71
2021/08/14 08:35:32;;;;;;;16.63;14.97;;;20.20;99.90;;;;;;5050369;28;20720;-70
2021/08/14 08:38:00;;;;;;;16.60;15.30;;;20.40;99.90;;;;;;5059079;28;20473;-70
2021/08/14 08:40:33;;;;;;;15.60;14.17;;;20.40;99.90;;;;;;5057455;28;20493;-70
2021/08/14 08:43:01;;;;;;;18.57;15.50;;;20.60;99.90;;;;;;5055823;28;20460;-71
2021/08/14 08:45:28;;;;;;;16.43;14.93;;;20.80;99.90;;;;;;5058483;28;20663;-70
2021/08/14 08:47:58;;;;;;;16.17;14.97;;;21.10;99.90;;;;;;5056662;28;20460;-71
2021/08/14 08:50:29;;;;;;;15.60;14.50;;;21.60;99.90;;;;;;5058116;28;20461;-72
2021/08/14 08:52:56;;;;;;;15.87;14.70;;;22.00;99.90;;;;;;5047105;28;20484;-70
2021/08/14 08:55:25;;;;;;;16.17;14.67;;;22.60;99.90;;;;;;5047901;28;20460;-70
2021/08/14 08:57:52;;;;;;;16.50;14.80;;;23.40;99.90;;;;;;5055122;28;20458;-71
2021/08/14 09:00:20;;;;;;;15.50;14.30;;;23.40;99.90;;;;;;5054233;28;20466;-71
2021/08/14 09:02:48;;;;;;;17.17;15.63;;;23.60;99.90;;;;;;5055556;28;20520;-71
2021/08/14 09:05:16;;;;;;;15.70;14.60;;;23.90;99.90;;;;;;5053573;28;20456;-70
2021/08/14 09:07:44;;;;;;;16.80;15.40;;;23.90;99.90;;;;;;5054592;28;20463;-72
2021/08/14 09:10:14;;;;;;;16.50;15.27;;;24.40;99.90;;;;;;5050907;28;20467;-71
2021/08/14 09:12:44;;;;;;;17.90;15.77;;;24.80;99.90;;;;;;5048638;28;20480;-73
2021/08/14 09:15:16;;;;;;;15.90;14.57;;;24.60;99.90;;;;;;5048922;28;20464;-71
2021/08/14 09:17:44;;;;;;;16.90;15.37;;;24.60;99.90;;;;;;5056068;28;20512;-71
2021/08/14 09:20:15;;;;;;;16.50;15.40;;;25.00;99.90;;;;;;5054690;28;20474;-73
2021/08/14 09:22:45;;;;;;;16.93;15.23;;;25.30;99.90;;;;;;5051790;28;20458;-71
2021/08/14 09:25:18;;;;;;;16.33;14.90;;;25.50;99.90;;;;;;5054085;28;20456;-70
2021/08/14 09:27:57;;;;;;;16.00;14.90;;;26.00;99.90;;;;;;5053729;28;20514;-72
2021/08/14 09:30:44;;;;;;;17.20;15.90;;;26.30;99.90;;;;;;5051071;28;20869;-72
2021/08/14 09:33:13;;;;;;;16.80;15.47;;;26.30;99.90;;;;;;5051896;28;20491;-71
2021/08/14 09:35:40;;;;;;;17.03;15.70;;;26.60;99.90;;;;;;5053030;28;20459;-70
2021/08/14 09:38:09;;;;;;;17.73;16.43;;;26.40;99.90;;;;;;5055788;28;20466;-72
2021/08/14 09:40:41;;;;;;;17.73;16.33;;;25.90;99.70;;;;;;5054286;28;20948;-70
2021/08/14 09:43:10;;;;;;;17.03;15.83;;;25.80;99.90;;;;;;5043933;28;20553;-72
2021/08/14 09:45:38;;;;;;;16.60;15.63;;;26.30;99.50;;;;;;5055701;28;20451;-70
2021/08/14 09:48:17;;;;;;;17.63;16.07;;;26.80;98.80;;;;;;5046728;28;20451;-72
2021/08/14 09:50:44;;;;;;;16.90;15.07;;;26.70;97.70;;;;;;5048394;28;20538;-70
2021/08/14 09:53:18;;;;;;;16.93;15.70;;;26.50;98.00;;;;;;5048796;28;20514;-73
2021/08/14 09:55:47;;;;;;;16.03;14.80;;;26.20;97.40;;;;;;5052027;28;20945;-70
2021/08/14 09:58:22;;;;;;;17.30;15.70;;;26.30;97.50;;;;;;5050199;28;20452;-71
2021/08/14 10:00:50;;;;;;;18.93;16.97;;;26.20;98.10;;;;;;5057638;28;20850;-72
2021/08/14 10:03:18;;;;;;;16.07;15.00;;;26.10;97.00;;;;;;5051512;28;20466;-71
2021/08/14 10:05:48;;;;;;;16.77;15.33;;;26.30;98.60;;;;;;5052257;28;20466;-71
2021/08/14 10:08:21;;;;;;;16.30;15.10;;;27.00;97.70;;;;;;5056240;28;20489;-71
2021/08/14 10:10:48;;;;;;;16.30;15.20;;;27.10;96.20;;;;;;5058964;28;20460;-72
2021/08/14 10:13:19;;;;;;;16.73;15.50;;;27.00;95.40;;;;;;5050793;28;20494;-71
2021/08/14 10:15:47;;;;;;;16.10;14.80;;;27.60;96.00;;;;;;5059658;28;21068;-70
2021/08/14 10:18:17;;;;;;;16.27;15.10;;;27.60;94.00;;;;;;5061974;28;20546;-72
2021/08/14 10:20:44;;;;;;;15.90;14.87;;;27.00;95.10;;;;;;5057614;28;20477;-71
2021/08/14 10:23:13;;;;;;;14.90;13.80;;;27.60;94.50;;;;;;5057186;28;20447;-71
2021/08/14 10:25:42;;;;;;;14.50;13.60;;;27.90;93.70;;;;;;5061579;28;20465;-69
2021/08/14 10:28:09;;;;;;;14.80;13.83;;;27.40;93.90;;;;;;5059781;28;20539;-73
2021/08/14 10:30:49;;;;;;;15.83;14.57;;;27.70;95.20;;;;;;5068728;28;20937;-71
2021/08/14 10:33:43;;;;;;;15.97;14.67;;;27.90;93.30;;;;;;5051341;28;20823;-71
2021/08/14 10:36:35;;;;;;;14.97;13.80;;;28.40;92.60;;;;;;5023747;28;21137;-72
2021/08/14 10:39:24;;;;;;;15.53;14.53;;;27.90;92.20;;;;;;5051231;28;20547;-71
2021/08/14 10:41:53;;;;;;;14.60;13.60;;;27.90;90.80;;;;;;5054487;28;20452;-72
2021/08/14 10:44:40;;;;;;;15.80;14.70;;;27.90;93.30;;;;;;5052878;28;20645;-74
2021/08/14 10:47:44;;;;;;;15.60;14.33;;;27.60;91.80;;;;;;5056376;28;20552;-72
2021/08/14 10:50:43;;;;;;;15.33;13.87;;;27.20;93.70;;;;;;5057271;28;20516;-71
2021/08/14 10:53:18;;;;;;;16.57;15.30;;;26.80;94.30;;;;;;5057188;28;20505;-71
2021/08/14 10:55:46;;;;;;;16.47;14.90;;;26.40;94.50;;;;;;5057670;28;20577;-70
2021/08/14 10:58:22;;;;;;;15.40;14.40;;;26.80;94.00;;;;;;5053284;28;20554;-71
2021/08/14 11:00:50;;;;;;;15.57;14.43;;;27.50;93.50;;;;;;5055967;28;20503;-74
2021/08/14 11:03:22;;;;;;;15.00;13.97;;;28.10;92.00;;;;;;5061216;28;20483;-71
2021/08/14 11:05:49;;;;;;;15.57;14.37;;;28.30;90.90;;;;;;5051098;28;20517;-73
2021/08/14 11:08:27;;;;;;;15.20;13.93;;;28.10;90.90;;;;;;5057780;28;20455;-70
2021/08/14 11:10:54;;;;;;;15.80;14.37;;;28.70;90.30;;;;;;5052558;28;20461;-71
2021/08/14 11:13:42;;;;;;;14.50;13.60;;;28.70;87.40;;;;;;5057123;28;20511;-73
2021/08/14 11:16:12;;;;;;;15.27;14.20;;;29.10;89.20;;;;;;5058026;28;20506;-72
2021/08/14 11:18:56;;;;;;;15.43;14.57;;;29.40;89.80;;;;;;5056166;28;20459;-72
2021/08/14 11:21:43;;;;;;;15.07;14.17;;;29.90;85.70;;;;;;5052773;28;20527;-71
2021/08/14 11:24:11;;;;;;;16.57;15.10;;;30.00;84.40;;;;;;5057986;28;20456;-72
2021/08/14 11:26:40;;;;;;;16.17;14.83;;;29.90;85.70;;;;;;5060316;28;21020;-74
2021/08/14 11:29:09;;;;;;;14.60;13.67;;;29.70;83.50;;;;;;5060997;28;20452;-71
2021/08/14 11:31:36;;;;;;;16.23;14.93;;;29.70;85.40;;;;;;5058206;28;21022;-71
2021/08/14 11:34:12;;;;;;;14.83;13.73;;;29.90;83.70;;;;;;5058825;28;20526;-70
2021/08/14 11:36:39;;;;;;;15.27;14.10;;;29.80;84.10;;;;;;5059209;28;20454;-72
2021/08/14 11:39:07;;;;;;;15.67;14.57;;;29.70;85.60;;;;;;5061352;28;20456;-71
2021/08/14 11:41:34;;;;;;;15.67;14.37;;;29.90;86.00;;;;;;5055987;28;20462;-74
2021/08/14 11:44:02;;;;;;;15.57;14.20;;;30.10;84.10;;;;;;5060903;28;20459;-71
2021/08/14 11:46:29;;;;;;;15.27;14.10;;;30.20;83.40;;;;;;5058998;28;20456;-71
2021/08/14 11:49:00;;;;;;;15.30;14.20;;;30.60;85.10;;;;;;5060530;28;20460;-71
2021/08/14 11:51:30;;;;;;;14.87;13.77;;;30.70;82.90;;;;;;5051828;28;21033;-71
2021/08/14 11:54:05;;;;;;;14.60;13.60;;;30.60;82.20;;;;;;5051745;28;20566;-71
2021/08/14 11:56:32;;;;;;;15.47;14.47;;;30.30;82.20;;;;;;5051364;28;20455;-72
2021/08/14 11:58:59;;;;;;;15.10;14.00;;;30.60;83.00;;;;;;5055517;28;20467;-75
2021/08/14 12:01:26;;;;;;;15.43;14.10;;;30.50;83.10;;;;;;5055387;28;20464;-71
2021/08/14 12:03:57;;;;;;;15.07;14.20;;;30.30;83.90;;;;;;5057584;28;20463;-72
2021/08/14 12:06:30;;;;;;;15.10;14.10;;;30.30;83.60;;;;;;5053488;28;20451;-71
2021/08/14 12:09:00;;;;;;;17.13;15.53;;;30.70;80.70;;;;;;5052948;28;20455;-72
2021/08/14 12:11:29;;;;;;;15.20;14.20;;;31.30;83.90;;;;;;5057199;28;20461;-74
2021/08/14 12:14:19;;;;;;;14.67;13.67;;;31.40;80.60;;;;;;5053134;28;20487;-73
2021/08/14 12:16:47;;;;;;;15.80;14.40;;;31.20;84.70;;;;;;5057044;28;20475;-74
2021/08/14 12:19:15;;;;;;;14.93;13.93;;;31.40;83.60;;;;;;5053623;28;20490;-71
2021/08/14 12:21:45;;;;;;;16.73;15.20;;;31.40;80.70;;;;;;5061011;28;20467;-71
2021/08/14 12:24:12;;;;;;;15.53;14.50;;;31.20;82.90;;;;;;5051893;28;20448;-71
2021/08/14 12:26:41;;;;;;;15.40;14.40;;;31.00;84.10;;;;;;5054810;28;20794;-73
2021/08/14 12:29:10;;;;;;;15.87;14.50;;;31.30;81.90;;;;;;5059235;28;20466;-71
2021/08/14 12:31:46;;;;;;;14.97;13.93;;;31.20;83.70;;;;;;5058164;28;20950;-74
2021/08/14 12:34:25;;;;;;;16.17;14.93;;;31.20;83.10;;;;;;5057935;28;20491;-71
2021/08/14 12:37:06;;;;;;;15.47;14.37;;;31.20;82.50;;;;;;5052536;28;20454;-74